Time,TemperatureF,DewpointF,PressureIn,WindDirection,WindDirectionDegrees,WindSpeedMPH,WindSpeedGustMPH,Humidity,HourlyPrecipIn,Conditions,Clouds,dailyrainin,SoftwareType,DateUTC
2013-08-24 00:00:00,56.2,48.0,29.94,North,0,0.0,0.0,74,0.00,,,0.00,WUHU216HW,2013-08-24 04:00:00,
2013-08-24 00:01:00,56.2,48.0,29.94,North,0,0.0,0.0,74,0.00,,,0.00,WUHU216HW,2013-08-24 04:01:00,
2013-08-24 00:02:00,56.2,48.0,29.94,North,0,0.0,0.0,74,0.00,,,0.00,WUHU216HW,2013-08-24 04:02:00,
2013-08-24 00:04:00,56.2,48.0,29.94,North,0,0.0,0.0,74,0.00,,,0.00,WUHU216HW,2013-08-24 04:04:00,
2013-08-24 00:09:00,56.2,48.0,29.94,North,0,0.0,0.0,74,0.00,,,0.00,WUHU216HW,2013-08-24 04:09:00,
2013-08-24 01:00:00,52.9,45.5,29.95,North,0,0.0,0.0,76,0.00,,,0.00,WUHU216HW,2013-08-24 05:00:00,
2013-08-24 01:05:00,52.9,45.2,29.95,North,0,0.0,0.0,75,0.00,,,0.00,WUHU216HW,2013-08-24 05:05:00,
2013-08-24 01:10:00,52.7,45.0,29.95,North,0,0.0,0.0,75,0.00,,,0.00,WUHU216HW,2013-08-24 05:10:00,
2013-08-24 01:15:00,52.7,45.0,29.95,North,0,0.0,0.0,75,0.00,,,0.00,WUHU216HW,2013-08-24 05:15:00,
2013-08-24 02:00:00,50.8,43.8,29.96,North,0,0.0,0.0,77,0.00,,,0.00,WUHU216HW,2013-08-24 06:00:00,
2013-08-24 02:05:00,50.4,43.5,29.96,North,0,0.0,0.0,77,0.00,,,0.00,WUHU216HW,2013-08-24 06:05:00,
2013-08-24 02:10:00,50.4,43.5,29.96,North,0,0.0,0.0,77,0.00,,,0.00,WUHU216HW,2013-08-24 06:10:00,
2013-08-24 02:15:00,50.4,43.5,29.96,North,0,0.0,0.0,77,0.00,,,0.00,WUHU216HW,2013-08-24 06:15:00,
2013-08-24 03:00:00,48.8,42.1,29.97,North,0,0.0,0.0,78,0.00,,,0.00,WUHU216HW,2013-08-24 07:00:00,
2013-08-24 03:05:00,48.6,41.9,29.97,North,0,0.0,0.0,78,0.00,,,0.00,WUHU216HW,2013-08-24 07:05:00,
2013-08-24 03:10:00,48.6,41.9,29.97,North,0,0.0,0.0,78,0.00,,,0.00,WUHU216HW,2013-08-24 07:10:00,
2013-08-24 04:00:00,47.2,41.0,29.99,North,0,0.0,0.0,79,0.00,,,0.00,WUHU216HW,2013-08-24 08:00:00,
2013-08-24 04:05:00,46.8,40.3,29.99,North,0,0.0,0.0,78,0.00,,,0.00,WUHU216HW,2013-08-24 08:05:00,
2013-08-24 04:10:00,46.8,40.3,29.99,North,0,0.0,0.0,78,0.00,,,0.00,WUHU216HW,2013-08-24 08:10:00,
2013-08-24 05:00:00,45.7,39.6,30.01,North,0,0.0,0.0,79,0.00,,,0.00,WUHU216HW,2013-08-24 09:00:00,
2013-08-24 05:05:00,45.7,39.6,30.01,North,0,0.0,0.0,79,0.00,,,0.00,WUHU216HW,2013-08-24 09:05:00,
2013-08-24 05:10:00,45.7,39.6,30.01,North,0,0.0,0.0,79,0.00,,,0.00,WUHU216HW,2013-08-24 09:10:00,
2013-08-24 06:00:00,43.9,38.2,30.04,North,0,0.0,0.0,80,0.00,,,0.00,WUHU216HW,2013-08-24 10:00:00,
2013-08-24 06:05:00,44.1,38.3,30.04,North,0,0.0,0.0,80,0.00,,,0.00,WUHU216HW,2013-08-24 10:05:00,
2013-08-24 06:10:00,44.1,38.3,30.04,North,0,0.0,0.0,80,0.00,,,0.00,WUHU216HW,2013-08-24 10:10:00,
2013-08-24 07:00:00,43.6,38.1,30.06,North,0,0.0,0.0,81,0.00,,,0.00,WUHU216HW,2013-08-24 11:00:00,
2013-08-24 07:05:00,43.7,38.3,30.06,North,0,0.0,0.0,81,0.00,,,0.00,WUHU216HW,2013-08-24 11:05:00,
2013-08-24 07:10:00,43.7,38.3,30.06,North,0,0.0,0.0,81,0.00,,,0.00,WUHU216HW,2013-08-24 11:10:00,
2013-08-24 08:00:00,47.7,43.4,30.08,North,0,0.0,0.0,85,0.00,,,0.00,WUHU216HW,2013-08-24 12:00:00,
2013-08-24 08:05:00,48.4,44.4,30.07,North,0,0.0,0.0,86,0.00,,,0.00,WUHU216HW,2013-08-24 12:05:00,
2013-08-24 08:10:00,48.4,44.4,30.07,North,0,0.0,0.0,86,0.00,,,0.00,WUHU216HW,2013-08-24 12:10:00,
2013-08-24 09:00:00,54.5,48.2,30.08,North,0,0.0,0.0,79,0.00,,,0.00,WUHU216HW,2013-08-24 13:00:00,
2013-08-24 09:05:00,55.6,48.8,30.08,North,0,0.0,0.0,78,0.00,,,0.00,WUHU216HW,2013-08-24 13:05:00,
2013-08-24 09:10:00,55.8,49.0,30.08,North,0,0.0,0.0,78,0.00,,,0.00,WUHU216HW,2013-08-24 13:10:00,
2013-08-24 09:15:00,55.8,49.0,30.08,North,0,0.0,0.0,78,0.00,,,0.00,WUHU216HW,2013-08-24 13:15:00,
2013-08-24 10:00:00,67.7,55.9,30.08,North,0,0.0,0.0,66,0.00,,,0.00,WUHU216HW,2013-08-24 14:00:00,
2013-08-24 10:02:00,68.2,56.0,30.08,North,0,0.0,0.0,65,0.00,,,0.00,WUHU216HW,2013-08-24 14:02:00,
2013-08-24 10:05:00,68.2,56.0,30.08,North,0,0.0,0.0,65,0.00,,,0.00,WUHU216HW,2013-08-24 14:05:00,
2013-08-24 10:10:00,68.2,56.0,30.08,North,0,0.0,0.0,65,0.00,,,0.00,WUHU216HW,2013-08-24 14:10:00,
2013-08-24 11:00:00,73.8,56.5,30.07,North,0,0.0,0.0,55,0.00,,,0.00,WUHU216HW,2013-08-24 15:00:00,
2013-08-24 11:05:00,74.2,56.9,30.07,North,0,0.0,0.0,55,0.00,,,0.00,WUHU216HW,2013-08-24 15:05:00,
2013-08-24 11:10:00,74.2,56.9,30.07,North,0,0.0,0.0,55,0.00,,,0.00,WUHU216HW,2013-08-24 15:10:00,
2013-08-24 12:00:00,78.8,56.9,30.07,North,0,0.0,0.0,47,0.00,,,0.00,WUHU216HW,2013-08-24 16:00:00,
2013-08-24 12:05:00,78.8,56.9,30.07,North,0,0.0,0.0,47,0.00,,,0.00,WUHU216HW,2013-08-24 16:05:00,
2013-08-24 12:10:00,78.8,56.9,30.07,North,0,0.0,0.0,47,0.00,,,0.00,WUHU216HW,2013-08-24 16:10:00,
2013-08-24 13:00:00,80.3,56.9,30.07,North,0,0.0,0.0,45,0.00,,,0.00,WUHU216HW,2013-08-24 17:00:00,
2013-08-24 13:05:00,80.3,56.4,30.06,North,0,0.0,0.0,44,0.00,,,0.00,WUHU216HW,2013-08-24 17:05:00,
2013-08-24 13:10:00,80.3,56.4,30.06,North,0,0.0,0.0,44,0.00,,,0.00,WUHU216HW,2013-08-24 17:10:00,
2013-08-24 14:00:00,82.8,58.0,30.06,North,0,0.0,0.0,43,0.00,,,0.00,WUHU216HW,2013-08-24 18:00:00,
2013-08-24 14:05:00,82.8,58.0,30.06,North,0,0.0,0.0,43,0.00,,,0.00,WUHU216HW,2013-08-24 18:05:00,
2013-08-24 14:10:00,82.8,58.6,30.06,North,0,0.0,0.0,44,0.00,,,0.00,WUHU216HW,2013-08-24 18:10:00,
2013-08-24 14:15:00,82.8,58.6,30.06,North,0,0.0,0.0,44,0.00,,,0.00,WUHU216HW,2013-08-24 18:15:00,
2013-08-24 15:00:00,82.4,55.8,30.05,North,0,0.0,0.0,40,0.00,,,0.00,WUHU216HW,2013-08-24 19:00:00,
2013-08-24 15:05:00,82.6,56.6,30.05,North,0,0.0,0.0,41,0.00,,,0.00,WUHU216HW,2013-08-24 19:05:00,
2013-08-24 15:10:00,82.6,56.6,30.05,North,0,0.0,0.0,41,0.00,,,0.00,WUHU216HW,2013-08-24 19:10:00,
2013-08-24 16:00:00,81.5,55.0,30.05,North,0,0.0,0.0,40,0.00,,,0.00,WUHU216HW,2013-08-24 20:00:00,
2013-08-24 16:05:00,81.2,55.3,30.05,North,0,0.0,0.0,41,0.00,,,0.00,WUHU216HW,2013-08-24 20:05:00,
2013-08-24 16:10:00,81.2,55.3,30.05,North,0,0.0,0.0,41,0.00,,,0.00,WUHU216HW,2013-08-24 20:10:00,
2013-08-24 17:00:00,77.4,54.4,30.05,North,0,0.0,0.0,45,0.00,,,0.00,WUHU216HW,2013-08-24 21:00:00,
2013-08-24 17:05:00,77.0,53.4,30.05,North,0,0.0,0.0,44,0.00,,,0.00,WUHU216HW,2013-08-24 21:05:00,
2013-08-24 17:10:00,77.0,53.4,30.05,North,0,0.0,0.0,44,0.00,,,0.00,WUHU216HW,2013-08-24 21:10:00,
2013-08-24 18:00:00,74.9,52.7,30.04,North,0,0.0,0.0,46,0.00,,,0.00,WUHU216HW,2013-08-24 22:00:00,
2013-08-24 18:05:00,74.7,52.5,30.04,North,0,0.0,0.0,46,0.00,,,0.00,WUHU216HW,2013-08-24 22:05:00,
2013-08-24 18:10:00,74.7,52.5,30.04,North,0,0.0,0.0,46,0.00,,,0.00,WUHU216HW,2013-08-24 22:10:00,
2013-08-24 19:00:00,71.6,55.1,30.05,North,0,0.0,0.0,56,0.00,,,0.00,WUHU216HW,2013-08-24 23:00:00,
2013-08-24 19:05:00,71.3,55.3,30.05,North,0,0.0,0.0,57,0.00,,,0.00,WUHU216HW,2013-08-24 23:05:00,
2013-08-24 19:10:00,71.3,55.3,30.05,North,0,0.0,0.0,57,0.00,,,0.00,WUHU216HW,2013-08-24 23:10:00,
2013-08-24 20:00:00,67.0,53.9,30.07,North,0,0.0,0.0,63,0.00,,,0.00,WUHU216HW,2013-08-25 00:00:00,
2013-08-24 20:05:00,67.0,53.9,30.07,North,0,0.0,0.0,63,0.00,,,0.00,WUHU216HW,2013-08-25 00:05:00,
2013-08-24 21:00:00,62.3,51.6,30.09,North,0,0.0,0.0,68,0.00,,,0.00,WUHU216HW,2013-08-25 01:00:00,
2013-08-24 21:05:00,61.9,51.3,30.09,North,0,0.0,0.0,68,0.00,,,0.00,WUHU216HW,2013-08-25 01:05:00,
2013-08-24 21:10:00,61.6,51.4,30.10,North,0,0.0,0.0,69,0.00,,,0.00,WUHU216HW,2013-08-25 01:10:00,
2013-08-24 21:15:00,61.4,51.2,30.10,North,0,0.0,0.0,69,0.00,,,0.00,WUHU216HW,2013-08-25 01:15:00,
2013-08-24 21:20:00,61.0,50.9,30.10,North,0,0.0,0.0,69,0.00,,,0.00,WUHU216HW,2013-08-25 01:20:00,
2013-08-24 21:25:00,60.7,50.5,30.10,North,0,0.0,0.0,69,0.00,,,0.00,WUHU216HW,2013-08-25 01:25:00,
2013-08-24 21:30:00,60.7,50.5,30.10,North,0,0.0,0.0,69,0.00,,,0.00,WUHU216HW,2013-08-25 01:30:00,
2013-08-24 21:35:00,60.7,50.5,30.10,North,0,0.0,0.0,69,0.00,,,0.00,WUHU216HW,2013-08-25 01:35:00,
2013-08-24 23:00:00,55.4,47.6,30.11,North,0,0.0,0.0,75,0.00,,,0.00,WUHU216HW,2013-08-25 03:00:00,
2013-08-24 23:05:00,55.1,47.3,30.11,North,0,0.0,0.0,75,0.00,,,0.00,WUHU216HW,2013-08-25 03:05:00,
2013-08-24 23:10:00,55.1,47.3,30.11,North,0,0.0,0.0,75,0.00,,,0.00,WUHU216HW,2013-08-25 03:10:00,
2013-08-24 23:15:00,55.1,47.3,30.11,North,0,0.0,0.0,75,0.00,,,0.00,WUHU216HW,2013-08-25 03:15:00,